createdAt,value
2022-12-16T00:04:23.582Z,-6.50
2022-12-16T00:09:25.197Z,-6.60
2022-12-16T00:14:29.068Z,-6.60
2022-12-16T00:19:31.560Z,-6.60
2022-12-16T00:24:33.267Z,-6.70
2022-12-16T00:29:35.016Z,-6.70
2022-12-16T00:34:36.599Z,-6.70
2022-12-16T00:39:38.245Z,-6.80
2022-12-16T00:44:39.873Z,-6.80
2022-12-16T00:49:41.492Z,-6.90
2022-12-16T00:54:43.210Z,-6.90
2022-12-16T00:59:44.873Z,-7.00
2022-12-16T01:04:46.552Z,-7.00
2022-12-16T01:09:48.202Z,-7.00
2022-12-16T01:14:50.050Z,-7.00
2022-12-16T01:19:53.140Z,-7.10
2022-12-16T01:24:54.748Z,-7.00
2022-12-16T01:29:57.128Z,-7.00
2022-12-16T01:34:58.861Z,-7.10
2022-12-16T01:40:00.566Z,-7.20
2022-12-16T01:45:28.262Z,-7.20
2022-12-16T01:50:31.431Z,-7.30
2022-12-16T01:55:40.878Z,-7.30
2022-12-16T02:00:42.834Z,-7.30
2022-12-16T02:05:45.890Z,-7.30
2022-12-16T02:16:32.419Z,-7.50
2022-12-16T02:21:48.771Z,-7.50
2022-12-16T02:33:22.103Z,-7.50
2022-12-16T02:38:34.897Z,-7.50
2022-12-16T02:48:56.375Z,-7.60
2022-12-16T02:53:58.059Z,-7.60
2022-12-16T02:59:21.264Z,-7.70
2022-12-16T03:05:03.405Z,-7.70
2022-12-16T03:10:08.615Z,-7.70
2022-12-16T03:15:13.403Z,-7.70
2022-12-16T03:20:39.071Z,-7.80
2022-12-16T03:25:44.122Z,-7.80
2022-12-16T03:30:51.651Z,-7.90
2022-12-16T03:36:09.614Z,-7.90
2022-12-16T03:41:12.686Z,-7.90
2022-12-16T03:46:16.018Z,-8.00
2022-12-16T03:56:38.571Z,-8.00
2022-12-16T04:01:40.669Z,-8.00
2022-12-16T04:06:42.374Z,-8.10
2022-12-16T04:12:02.531Z,-8.10
2022-12-16T04:17:23.785Z,-8.10
2022-12-16T04:22:52.007Z,-8.10
2022-12-16T04:27:53.712Z,-8.10
2022-12-16T04:33:22.494Z,-8.20
2022-12-16T04:38:42.972Z,-8.20
2022-12-16T04:44:03.254Z,-8.30
2022-12-16T04:49:23.817Z,-8.20
2022-12-16T04:54:44.327Z,-8.30
2022-12-16T05:00:05.045Z,-8.40
2022-12-16T05:05:26.069Z,-8.40
2022-12-16T05:10:46.629Z,-8.40
2022-12-16T05:16:07.141Z,-8.40
2022-12-16T05:21:27.336Z,-8.50
2022-12-16T05:26:47.865Z,-8.50
2022-12-16T05:37:46.462Z,-8.50
2022-12-16T05:43:08.183Z,-8.50
2022-12-16T05:48:31.365Z,-8.60
2022-12-16T05:53:51.722Z,-8.60
2022-12-16T05:59:12.180Z,-8.60
2022-12-16T06:04:32.513Z,-8.60
2022-12-16T06:10:09.587Z,-8.70
2022-12-16T06:15:29.922Z,-8.60
2022-12-16T06:20:50.479Z,-8.70
2022-12-16T06:26:10.822Z,-8.70
2022-12-16T06:31:31.824Z,-8.70
2022-12-16T06:36:52.122Z,-8.70
2022-12-16T06:42:12.629Z,-8.70
2022-12-16T06:47:32.715Z,-8.70
2022-12-16T06:52:53.279Z,-8.70
2022-12-16T06:58:17.913Z,-8.70
2022-12-16T07:03:38.591Z,-8.80
2022-12-16T07:08:59.264Z,-8.80
2022-12-16T07:14:19.713Z,-8.80
2022-12-16T07:19:40.089Z,-8.70
2022-12-16T07:25:00.466Z,-8.70
2022-12-16T07:30:20.935Z,-8.70
2022-12-16T07:35:41.223Z,-8.70
2022-12-16T07:41:03.086Z,-8.70
2022-12-16T07:46:23.713Z,-8.70
2022-12-16T07:51:44.207Z,-8.70
2022-12-16T07:57:04.630Z,-8.60
2022-12-16T08:02:30.374Z,-8.60
2022-12-16T08:07:50.974Z,-8.60
2022-12-16T08:13:20.793Z,-8.60
2022-12-16T08:18:45.669Z,-8.50
2022-12-16T08:24:05.934Z,-8.50
2022-12-16T08:29:43.690Z,-8.40
2022-12-16T08:35:05.074Z,-8.30
2022-12-16T08:40:35.451Z,-8.20
2022-12-16T08:45:56.580Z,-8.20
2022-12-16T08:56:40.224Z,-8.00
2022-12-16T09:02:00.960Z,-8.00
2022-12-16T09:07:21.189Z,-7.80
2022-12-16T09:12:41.688Z,-7.80
2022-12-16T09:18:02.007Z,-7.60
2022-12-16T09:23:23.168Z,-7.50
2022-12-16T09:28:43.673Z,-7.40
2022-12-16T09:34:04.191Z,-7.20
2022-12-16T09:39:24.877Z,-7.10
2022-12-16T09:45:16.967Z,-7.00
2022-12-16T09:50:46.118Z,-6.90
2022-12-16T09:56:07.334Z,-6.70
2022-12-16T10:01:31.384Z,-6.60
2022-12-16T10:07:04.881Z,-6.40
2022-12-16T10:12:51.115Z,-6.30
2022-12-16T10:18:12.645Z,-6.10
2022-12-16T10:23:57.786Z,-5.90
2022-12-16T10:29:39.377Z,-5.80
2022-12-16T10:34:59.864Z,-5.60
2022-12-16T10:40:20.760Z,-5.50
2022-12-16T10:45:50.559Z,-5.30
2022-12-16T10:51:11.153Z,-5.20
2022-12-16T10:56:31.711Z,-5.20
2022-12-16T11:01:52.353Z,-5.00
2022-12-16T11:07:13.143Z,-4.90
2022-12-16T11:12:38.697Z,-4.80
2022-12-16T11:17:59.341Z,-4.70
2022-12-16T11:23:52.319Z,-4.60
2022-12-16T11:29:33.487Z,-4.50
2022-12-16T11:34:54.545Z,-4.30
2022-12-16T11:40:14.989Z,-4.20
2022-12-16T11:45:38.998Z,-4.10
2022-12-16T11:51:12.734Z,-3.90
2022-12-16T11:56:41.978Z,-3.80
2022-12-16T12:02:14.079Z,-3.60
2022-12-16T12:07:57.218Z,-3.50
2022-12-16T12:13:46.673Z,-3.40
2022-12-16T12:19:17.219Z,-3.20
2022-12-16T12:25:01.618Z,-3.10
2022-12-16T12:30:28.493Z,-3.00
2022-12-16T12:35:55.566Z,-2.80
2022-12-16T12:41:30.395Z,-2.70
2022-12-16T12:47:04.038Z,-2.60
2022-12-16T12:52:33.582Z,-2.50
2022-12-16T12:57:58.213Z,-2.40
2022-12-16T13:03:45.924Z,-2.30
2022-12-16T13:09:09.182Z,-2.20
2022-12-16T13:14:53.022Z,-2.00
2022-12-16T13:20:16.348Z,-1.90
2022-12-16T13:25:59.990Z,-1.70
2022-12-16T13:31:25.876Z,-1.60
2022-12-16T13:36:53.156Z,-1.50
2022-12-16T13:42:18.818Z,-1.40
2022-12-16T13:48:14.019Z,-1.40
2022-12-16T13:53:35.677Z,-1.50
2022-12-16T13:59:12.544Z,-1.50
2022-12-16T14:04:44.235Z,-1.50
2022-12-16T14:10:07.646Z,-1.40
2022-12-16T14:15:40.856Z,-1.50
2022-12-16T14:21:09.135Z,-1.50
2022-12-16T14:26:36.870Z,-1.50
2022-12-16T14:31:59.833Z,-1.50
2022-12-16T14:37:36.524Z,-1.50
2022-12-16T14:42:59.955Z,-1.60
2022-12-16T14:48:20.462Z,-1.60
2022-12-16T14:53:43.389Z,-1.70
2022-12-16T14:59:04.030Z,-1.70
2022-12-16T15:04:33.200Z,-1.80
2022-12-16T15:10:11.936Z,-1.80
2022-12-16T15:15:38.395Z,-1.90
2022-12-16T15:21:11.602Z,-2.00
2022-12-16T15:26:43.610Z,-2.10
2022-12-16T15:32:04.156Z,-2.20
2022-12-16T15:37:44.319Z,-2.20
2022-12-16T15:43:09.759Z,-2.30
2022-12-16T15:48:40.429Z,-2.40
2022-12-16T15:54:01.118Z,-2.50
2022-12-16T15:59:47.543Z,-2.60
2022-12-16T16:05:08.051Z,-2.70
2022-12-16T16:10:36.307Z,-2.80
2022-12-16T16:15:56.853Z,-2.90
2022-12-16T16:21:17.392Z,-3.00
2022-12-16T16:26:41.505Z,-3.10
2022-12-16T16:32:04.361Z,-3.20
2022-12-16T16:37:32.854Z,-3.30
2022-12-16T16:42:53.425Z,-3.40
2022-12-16T16:48:34.599Z,-3.50
2022-12-16T16:53:55.052Z,-3.50
2022-12-16T16:59:15.658Z,-3.50
2022-12-16T17:04:36.157Z,-3.50
2022-12-16T17:09:56.752Z,-3.40
2022-12-16T17:15:17.253Z,-3.40
2022-12-16T17:20:37.775Z,-3.40
2022-12-16T17:25:58.220Z,-3.30
2022-12-16T17:31:18.913Z,-3.30
2022-12-16T17:36:39.331Z,-3.20
2022-12-16T17:41:59.845Z,-3.20
2022-12-16T17:47:20.828Z,-3.10
2022-12-16T17:52:43.847Z,-3.00
2022-12-16T17:58:04.333Z,-3.00
2022-12-16T18:03:24.983Z,-3.00
2022-12-16T18:08:45.177Z,-2.90
2022-12-16T18:14:07.719Z,-2.90
2022-12-16T18:19:30.938Z,-2.80
2022-12-16T18:24:55.175Z,-2.80
2022-12-16T18:30:15.840Z,-2.70
2022-12-16T18:35:36.340Z,-2.70
2022-12-16T18:41:04.037Z,-2.60
2022-12-16T18:46:29.378Z,-2.60
2022-12-16T18:51:51.791Z,-2.60
2022-12-16T18:57:12.305Z,-2.50
2022-12-16T19:02:32.807Z,-2.50
2022-12-16T19:07:53.235Z,-2.50
2022-12-16T19:13:16.778Z,-2.40
2022-12-16T19:18:37.602Z,-2.40
2022-12-16T19:23:58.213Z,-2.30
2022-12-16T19:29:18.839Z,-2.30
2022-12-16T19:34:49.105Z,-2.20
2022-12-16T19:40:09.559Z,-2.10
2022-12-16T19:45:30.190Z,-2.10
2022-12-16T19:50:50.758Z,-2.10
2022-12-16T19:56:16.402Z,-2.10
2022-12-16T20:01:37.106Z,-2.00
2022-12-16T20:06:58.176Z,-2.00
2022-12-16T20:12:18.857Z,-2.00
2022-12-16T20:17:39.298Z,-2.00
2022-12-16T20:22:59.844Z,-1.90
2022-12-16T20:34:03.089Z,-1.90
2022-12-16T20:39:23.836Z,-1.90
2022-12-16T20:44:44.303Z,-1.90
2022-12-16T20:50:04.714Z,-1.90
2022-12-16T20:55:25.158Z,-1.90
2022-12-16T21:00:45.448Z,-1.80
2022-12-16T21:06:06.133Z,-1.80
2022-12-16T21:11:26.295Z,-1.80
2022-12-16T21:16:46.927Z,-1.80
2022-12-16T21:22:10.378Z,-1.80
2022-12-16T21:27:30.942Z,-1.80
2022-12-16T21:32:51.333Z,-1.90
2022-12-16T21:38:13.927Z,-1.80
2022-12-16T21:43:34.955Z,-1.80
2022-12-16T21:48:55.641Z,-1.80
2022-12-16T21:54:16.710Z,-1.80
2022-12-16T21:59:37.030Z,-1.80
2022-12-16T22:04:57.639Z,-1.80
2022-12-16T22:10:18.018Z,-1.80
2022-12-16T22:15:38.522Z,-1.80
2022-12-16T22:20:59.181Z,-1.80
2022-12-16T22:26:20.138Z,-1.80
2022-12-16T22:31:40.624Z,-1.80
2022-12-16T22:36:21.208Z,-2.00
2022-12-16T22:37:01.223Z,-1.80
2022-12-16T22:42:21.679Z,-1.70
2022-12-16T22:47:42.228Z,-1.80
2022-12-16T22:53:02.762Z,-1.70
2022-12-16T22:58:30.572Z,-1.70
2022-12-16T23:03:52.233Z,-1.70
2022-12-16T23:09:12.591Z,-1.70
2022-12-16T23:14:35.655Z,-1.70
2022-12-16T23:19:59.705Z,-1.70
2022-12-16T23:25:20.091Z,-1.70
2022-12-16T23:30:40.526Z,-1.70
2022-12-16T23:36:01.078Z,-1.70
2022-12-16T23:41:21.556Z,-1.70
2022-12-16T23:46:42.247Z,-1.60
2022-12-16T23:52:02.694Z,-1.60
2022-12-16T23:57:23.130Z,-1.60
